Time;durP1;ratioP1;P1;durP2;ratioP2;P2;SDS_P1;SDS_P2;PMS_P1;PMS_P2;Temp;Humidity;BMP_temperature;BMP_pressure;BME280_temperature;BME280_humidity;BME280_pressure;Samples;Min_cycle;Max_cycle;Signal;HPM_P1;HPM_P2
2023/02/11 00:01:40;;;;;;;7.72;2.70;;;6.90;99.90;;;;;;5034929;28;20565;-66
2023/02/11 00:04:06;;;;;;;29.25;4.85;;;6.90;99.90;;;;;;5068729;28;20049;-66
2023/02/11 00:06:34;;;;;;;11.65;3.08;;;6.90;99.90;;;;;;5069944;28;20083;-66
2023/02/11 00:09:00;;;;;;;12.30;3.28;;;6.90;99.90;;;;;;5069108;28;20048;-66
2023/02/11 00:11:30;;;;;;;31.85;6.18;;;6.90;99.90;;;;;;5069092;28;20032;-66
2023/02/11 00:14:02;;;;;;;11.77;3.45;;;6.90;99.90;;;;;;5070544;28;20049;-66
2023/02/11 00:16:28;;;;;;;20.45;4.13;;;6.80;99.90;;;;;;5050642;28;20382;-66
2023/02/11 00:18:54;;;;;;;34.92;5.65;;;6.80;99.90;;;;;;5052347;28;20348;-66
2023/02/11 00:21:22;;;;;;;36.78;7.22;;;6.80;99.90;;;;;;5050533;28;20088;-66
2023/02/11 00:23:48;;;;;;;17.92;4.95;;;6.80;99.90;;;;;;5070021;28;20036;-66
2023/02/11 00:26:15;;;;;;;10.15;3.28;;;6.80;99.90;;;;;;5069241;28;20035;-66
2023/02/11 00:28:41;;;;;;;24.02;5.85;;;6.80;99.90;;;;;;5067881;28;20081;-66
2023/02/11 00:31:07;;;;;;;19.92;4.18;;;6.80;99.90;;;;;;5070288;28;20080;-66
2023/02/11 00:33:33;;;;;;;19.98;5.13;;;6.80;99.90;;;;;;5067867;28;20045;-66
2023/02/11 00:36:06;;;;;;;13.98;4.20;;;6.80;99.90;;;;;;5070365;28;20047;-65
2023/02/11 00:38:31;;;;;;;11.35;2.58;;;6.80;99.90;;;;;;5036791;28;20041;-66
2023/02/11 00:40:58;;;;;;;30.00;5.40;;;6.80;99.90;;;;;;5051825;28;20174;-66
2023/02/11 00:43:24;;;;;;;10.40;2.47;;;6.80;99.90;;;;;;5068623;28;20048;-66
2023/02/11 00:45:50;;;;;;;9.15;3.28;;;6.80;99.90;;;;;;5068969;28;20040;-66
2023/02/11 00:48:16;;;;;;;10.68;2.95;;;6.90;99.90;;;;;;5069763;28;20055;-66
2023/02/11 00:50:42;;;;;;;24.05;6.10;;;6.90;99.90;;;;;;5050421;28;20517;-66
2023/02/11 00:53:07;;;;;;;11.35;2.85;;;6.90;99.90;;;;;;5069773;28;20616;-66
2023/02/11 00:55:34;;;;;;;11.73;3.40;;;6.90;99.90;;;;;;5049520;28;20036;-66
2023/02/11 00:58:00;;;;;;;4.20;1.65;;;7.00;99.90;;;;;;5051956;28;20391;-66
2023/02/11 01:00:27;;;;;;;7.65;2.47;;;6.90;99.90;;;;;;5068320;28;20044;-65
2023/02/11 01:02:53;;;;;;;24.98;5.47;;;6.90;99.90;;;;;;5067214;28;20119;-66
2023/02/11 01:05:19;;;;;;;16.20;5.25;;;6.90;99.90;;;;;;5068792;28;20043;-66
2023/02/11 01:07:45;;;;;;;17.08;4.25;;;7.00;99.90;;;;;;5068450;28;20041;-66
2023/02/11 01:10:11;;;;;;;25.33;6.07;;;6.90;99.90;;;;;;5069780;28;20037;-66
2023/02/11 01:12:37;;;;;;;20.23;5.50;;;6.90;99.90;;;;;;5048969;28;20139;-66
2023/02/11 01:15:06;;;;;;;30.10;7.07;;;6.90;99.90;;;;;;5069367;28;20127;-66
2023/02/11 01:17:33;;;;;;;14.88;4.03;;;6.90;99.90;;;;;;5050139;28;20940;-66
2023/02/11 01:19:58;;;;;;;20.77;7.32;;;7.00;99.90;;;;;;5068560;28;20045;-66
2023/02/11 01:22:24;;;;;;;15.63;4.93;;;7.00;99.90;;;;;;5068755;28;20123;-65
2023/02/11 01:24:50;;;;;;;6.50;2.25;;;7.00;99.90;;;;;;5049488;28;20486;-66
2023/02/11 01:27:15;;;;;;;4.22;2.25;;;7.10;99.90;;;;;;5069500;28;20132;-66
2023/02/11 01:29:41;;;;;;;13.38;2.95;;;7.10;99.90;;;;;;5066690;28;20037;-66
2023/02/11 01:32:07;;;;;;;7.68;2.50;;;7.10;99.90;;;;;;5069023;28;20049;-66
2023/02/11 01:34:33;;;;;;;16.33;5.03;;;7.10;99.90;;;;;;5049079;28;20048;-66
2023/02/11 01:36:59;;;;;;;18.65;4.20;;;7.10;99.90;;;;;;5068321;28;20032;-66
2023/02/11 01:39:26;;;;;;;13.70;4.72;;;7.10;99.90;;;;;;5049181;28;20502;-66
2023/02/11 01:41:53;;;;;;;16.80;5.13;;;7.10;99.90;;;;;;5068291;28;20460;-66
2023/02/11 01:44:34;;;;;;;19.30;6.72;;;7.10;99.90;;;;;;5050353;28;20036;-66
2023/02/11 01:47:00;;;;;;;19.77;4.85;;;7.00;99.90;;;;;;5066669;28;20048;-66
2023/02/11 01:49:37;;;;;;;7.28;3.40;;;7.00;99.90;;;;;;5068733;28;20051;-66
2023/02/11 01:52:11;;;;;;;5.75;2.40;;;7.10;99.90;;;;;;5031649;28;20040;-66
2023/02/11 01:57:31;;;;;;;20.70;5.45;;;7.00;99.90;;;;;;5068750;28;20458;-66
2023/02/11 02:00:04;;;;;;;12.63;5.25;;;7.10;99.90;;;;;;5066515;28;20101;-66
2023/02/11 02:02:48;;;;;;;7.55;3.08;;;7.00;99.90;;;;;;5050289;28;20044;-66
2023/02/11 02:05:32;;;;;;;15.52;5.53;;;7.00;99.90;;;;;;5049199;28;20040;-66
2023/02/11 02:08:18;;;;;;;22.13;6.55;;;7.00;99.90;;;;;;5054038;28;20087;-66
2023/02/11 02:10:47;;;;;;;10.82;4.35;;;7.00;99.90;;;;;;5067593;28;20131;-66
2023/02/11 02:13:13;;;;;;;24.02;6.15;;;7.00;99.90;;;;;;5048905;28;20090;-66
2023/02/11 02:15:46;;;;;;;10.27;3.75;;;7.00;99.90;;;;;;5067914;28;20076;-66
2023/02/11 02:18:44;;;;;;;16.25;4.53;;;6.90;99.90;;;;;;5066977;28;20048;-66
2023/02/11 02:21:40;;;;;;;16.52;5.20;;;6.90;99.90;;;;;;5026097;28;20064;-66
2023/02/11 02:24:37;;;;;;;10.15;3.83;;;6.90;99.90;;;;;;5068010;28;20470;-66
2023/02/11 02:27:34;;;;;;;11.80;4.93;;;6.90;99.90;;;;;;5039345;28;20212;-66
2023/02/11 02:30:21;;;;;;;24.52;6.72;;;6.90;99.90;;;;;;5053304;28;20067;-66
2023/02/11 02:32:55;;;;;;;21.63;6.55;;;7.00;99.90;;;;;;5049428;28;20502;-66
2023/02/11 02:35:42;;;;;;;21.02;6.85;;;7.00;99.90;;;;;;5048581;28;20063;-66
2023/02/11 02:38:32;;;;;;;14.85;5.78;;;6.90;99.90;;;;;;5066770;28;20512;-66
2023/02/11 02:41:07;;;;;;;9.27;5.43;;;6.90;99.90;;;;;;5032695;28;20057;-66
2023/02/11 02:43:36;;;;;;;15.10;5.05;;;6.90;99.90;;;;;;5034584;28;20040;-66
2023/02/11 02:46:17;;;;;;;29.30;10.15;;;6.90;99.90;;;;;;5066906;28;20115;-66
2023/02/11 02:48:43;;;;;;;32.45;7.30;;;6.80;99.90;;;;;;5053539;28;20045;-66
2023/02/11 02:51:47;;;;;;;21.08;7.32;;;6.80;99.90;;;;;;5064432;28;20071;-66
2023/02/11 02:54:52;;;;;;;15.55;6.65;;;6.80;99.90;;;;;;4976245;28;20073;-66
2023/02/11 02:57:17;;;;;;;19.23;7.57;;;6.80;99.90;;;;;;4968919;28;20145;-66
2023/02/11 02:59:53;;;;;;;26.70;9.82;;;6.80;99.90;;;;;;5023998;28;20128;-66
2023/02/11 03:02:58;;;;;;;26.60;8.30;;;6.80;99.90;;;;;;5060366;28;20049;-66
2023/02/11 03:05:53;;;;;;;12.57;5.80;;;6.80;99.90;;;;;;5065778;28;20122;-66
2023/02/11 03:08:48;;;;;;;14.63;5.78;;;6.80;99.90;;;;;;5067270;28;20044;-66
2023/02/11 03:11:17;;;;;;;33.92;10.60;;;6.80;99.90;;;;;;5067736;28;20176;-66
2023/02/11 03:13:44;;;;;;;23.67;7.07;;;6.80;99.90;;;;;;5047404;28;20468;-66
2023/02/11 03:16:24;;;;;;;35.00;10.13;;;6.70;99.90;;;;;;5049032;28;20049;-66
2023/02/11 03:19:01;;;;;;;4.65;2.17;;;6.80;99.90;;;;;;5065919;28;20060;-66
2023/02/11 03:21:31;;;;;;;17.35;7.43;;;6.70;99.90;;;;;;5040683;28;20052;-66
2023/02/11 03:24:01;;;;;;;37.33;11.27;;;6.70;99.90;;;;;;5067300;28;20044;-66
2023/02/11 03:26:28;;;;;;;;;;;6.70;99.90;;;;;;5048251;28;20053;-66
2023/02/11 03:29:17;;;;;;;31.15;8.43;;;6.80;99.90;;;;;;5066556;28;19951;-66
2023/02/11 03:32:15;;;;;;;15.82;5.50;;;6.70;99.90;;;;;;5046297;28;20047;-66
2023/02/11 03:35:18;;;;;;;29.25;10.02;;;6.80;99.90;;;;;;5065888;28;20037;-66
2023/02/11 03:37:52;;;;;;;31.55;10.13;;;6.70;99.90;;;;;;5015858;28;20056;-66
2023/02/11 03:40:22;;;;;;;33.33;10.57;;;6.80;99.90;;;;;;5047795;28;20040;-66
2023/02/11 03:42:54;;;;;;;26.13;10.50;;;6.70;99.90;;;;;;5067210;28;20131;-66
2023/02/11 03:45:22;;;;;;;28.55;9.20;;;6.80;99.90;;;;;;5067344;28;20105;-66
2023/02/11 03:47:54;;;;;;;25.10;8.32;;;6.80;99.90;;;;;;5065699;28;20040;-66
2023/02/11 03:50:22;;;;;;;28.88;10.48;;;6.80;99.90;;;;;;5065056;28;20072;-66
2023/02/11 03:52:48;;;;;;;29.58;8.25;;;6.80;99.90;;;;;;5030509;28;20045;-66
2023/02/11 03:55:18;;;;;;;26.80;9.00;;;6.80;99.90;;;;;;5048745;28;20036;-66
2023/02/11 03:57:44;;;;;;;36.85;11.80;;;6.80;99.90;;;;;;5048404;28;20420;-66
2023/02/11 04:00:10;;;;;;;26.08;9.73;;;6.80;99.90;;;;;;5065659;28;20110;-66
2023/02/11 04:02:37;;;;;;;32.40;11.18;;;6.80;99.90;;;;;;5068347;28;20085;-66
2023/02/11 04:05:04;;;;;;;27.20;9.73;;;6.80;99.90;;;;;;5050628;28;20037;-67
2023/02/11 04:07:29;;;;;;;32.50;8.85;;;6.90;99.90;;;;;;5070785;28;20094;-66
2023/02/11 04:09:55;;;;;;;34.42;11.38;;;6.90;99.90;;;;;;5068760;28;20032;-66
2023/02/11 04:12:21;;;;;;;35.22;11.40;;;6.90;99.90;;;;;;5070063;28;20060;-66
2023/02/11 04:14:47;;;;;;;30.38;11.13;;;6.90;99.90;;;;;;5069336;28;20122;-66
2023/02/11 04:17:13;;;;;;;28.60;12.02;;;6.90;99.90;;;;;;5069999;28;20044;-66
2023/02/11 04:19:39;;;;;;;28.75;10.30;;;6.90;99.90;;;;;;5070156;28;20394;-66
2023/02/11 04:22:05;;;;;;;29.30;9.30;;;6.90;99.90;;;;;;5050716;28;20061;-66
2023/02/11 04:24:31;;;;;;;31.58;11.85;;;6.80;99.90;;;;;;5052310;28;20446;-66
2023/02/11 04:26:57;;;;;;;25.95;11.48;;;6.90;99.90;;;;;;5051025;28;20193;-66
2023/02/11 04:29:23;;;;;;;34.33;12.82;;;6.80;99.90;;;;;;5051486;28;20040;-66
2023/02/11 04:31:49;;;;;;;30.33;11.43;;;6.80;99.90;;;;;;5068235;28;20171;-66
2023/02/11 04:34:14;;;;;;;29.17;10.68;;;6.80;99.90;;;;;;5051792;28;20128;-66
2023/02/11 04:36:40;;;;;;;26.98;10.10;;;6.90;99.90;;;;;;5069176;28;20052;-66
2023/02/11 04:39:06;;;;;;;30.98;9.10;;;6.90;99.90;;;;;;5069017;28;20049;-66
2023/02/11 04:41:32;;;;;;;23.35;9.32;;;6.90;99.90;;;;;;5069684;28;20036;-66
2023/02/11 04:43:58;;;;;;;27.85;12.45;;;6.90;99.90;;;;;;5068406;28;20123;-66
2023/02/11 04:46:23;;;;;;;19.95;8.85;;;6.90;99.90;;;;;;5069627;28;20183;-66
2023/02/11 04:48:50;;;;;;;25.27;12.05;;;6.90;99.90;;;;;;5068226;28;20048;-66
2023/02/11 04:51:15;;;;;;;32.40;11.38;;;6.90;99.90;;;;;;5069762;28;20052;-66
2023/02/11 04:53:41;;;;;;;21.85;9.88;;;6.90;99.90;;;;;;5067967;28;20059;-66
2023/02/11 04:56:07;;;;;;;20.70;10.13;;;6.90;99.90;;;;;;5069239;28;20417;-66
2023/02/11 04:58:33;;;;;;;23.25;9.23;;;6.90;99.90;;;;;;5051366;28;20032;-66
2023/02/11 05:01:06;;;;;;;33.70;13.57;;;6.90;99.90;;;;;;5050550;28;20472;-66
2023/02/11 05:03:32;;;;;;;30.45;11.18;;;6.90;99.90;;;;;;5051543;28;20394;-66
2023/02/11 05:05:58;;;;;;;25.10;8.65;;;6.90;99.90;;;;;;5033465;28;20068;-66
2023/02/11 05:08:24;;;;;;;26.90;12.35;;;6.90;99.90;;;;;;5069139;28;20048;-66
2023/02/11 05:10:50;;;;;;;34.08;12.25;;;7.00;99.90;;;;;;5068209;28;20046;-66
2023/02/11 05:13:15;;;;;;;27.10;11.90;;;7.00;99.90;;;;;;5050150;28;20055;-66
2023/02/11 05:15:41;;;;;;;27.08;11.57;;;7.00;99.90;;;;;;5050428;28;20443;-66
2023/02/11 05:18:07;;;;;;;24.13;8.52;;;7.00;99.90;;;;;;5050363;28;20052;-66
2023/02/11 05:20:33;;;;;;;29.38;11.32;;;7.00;99.90;;;;;;5051533;28;20051;-66
2023/02/11 05:22:59;;;;;;;26.63;12.98;;;7.00;99.90;;;;;;5067229;28;20044;-66
2023/02/11 05:25:24;;;;;;;29.88;12.98;;;7.00;99.90;;;;;;5051135;28;20079;-66
2023/02/11 05:27:50;;;;;;;32.03;14.05;;;7.00;99.90;;;;;;5067467;28;20474;-66
2023/02/11 05:30:16;;;;;;;36.67;13.52;;;6.90;99.90;;;;;;5068711;28;20045;-66
2023/02/11 05:32:42;;;;;;;34.55;12.98;;;6.90;99.90;;;;;;5067892;28;20044;-66
2023/02/11 05:35:08;;;;;;;32.65;13.77;;;7.00;99.90;;;;;;5068299;28;20044;-66
2023/02/11 05:37:34;;;;;;;26.30;11.10;;;7.00;99.90;;;;;;5069239;28;20393;-65
2023/02/11 05:40:00;;;;;;;26.77;10.95;;;7.00;99.90;;;;;;5067278;28;20595;-66
2023/02/11 05:42:26;;;;;;;18.98;9.60;;;7.00;99.90;;;;;;5068650;28;20131;-66
2023/02/11 05:44:51;;;;;;;25.85;12.90;;;7.00;99.90;;;;;;5048472;28;20083;-66
2023/02/11 05:47:17;;;;;;;23.95;10.88;;;7.00;99.90;;;;;;5068499;28;20080;-66
2023/02/11 05:49:43;;;;;;;29.63;13.00;;;7.00;99.90;;;;;;5049055;28;20098;-67
2023/02/11 05:52:09;;;;;;;22.08;12.82;;;7.10;99.90;;;;;;5050962;28;20052;-66
2023/02/11 05:54:34;;;;;;;20.17;10.55;;;7.10;99.90;;;;;;5067032;28;20075;-66
2023/02/11 05:57:00;;;;;;;7.50;4.72;;;7.10;99.90;;;;;;5067417;28;20047;-66
2023/02/11 05:59:26;;;;;;;18.95;9.15;;;7.10;99.90;;;;;;5068005;28;20052;-66
2023/02/11 06:01:51;;;;;;;25.00;11.07;;;7.20;99.90;;;;;;5048682;28;20040;-66
2023/02/11 06:04:17;;;;;;;15.52;6.63;;;7.20;99.90;;;;;;5050101;28;20063;-66
2023/02/11 06:06:43;;;;;;;22.85;9.23;;;7.20;99.90;;;;;;5066368;28;20041;-66
2023/02/11 06:09:10;;;;;;;20.40;8.02;;;7.20;99.90;;;;;;5068642;28;20040;-66
2023/02/11 06:11:36;;;;;;;25.88;12.20;;;7.20;99.90;;;;;;5048754;28;20055;-66
2023/02/11 06:14:02;;;;;;;30.40;12.85;;;7.30;99.90;;;;;;5067272;28;20028;-66
2023/02/11 06:16:28;;;;;;;24.50;10.27;;;7.30;99.90;;;;;;5049147;28;20123;-66
2023/02/11 06:18:55;;;;;;;23.33;10.45;;;7.30;99.90;;;;;;5066945;28;20103;-66
2023/02/11 06:21:20;;;;;;;28.33;11.02;;;7.20;99.90;;;;;;5067832;28;20728;-66
2023/02/11 06:23:46;;;;;;;21.02;10.27;;;7.30;99.90;;;;;;5048896;28;20062;-66
2023/02/11 06:26:18;;;;;;;35.28;12.60;;;7.30;99.90;;;;;;5066798;28;20044;-66
2023/02/11 06:28:44;;;;;;;22.60;10.20;;;7.30;99.90;;;;;;5066649;28;20491;-66
2023/02/11 06:31:10;;;;;;;29.90;11.43;;;7.30;99.90;;;;;;5049592;28;20055;-67
2023/02/11 06:33:37;;;;;;;25.92;10.18;;;7.30;99.90;;;;;;5052275;28;20124;-66
2023/02/11 06:36:04;;;;;;;14.45;7.97;;;7.30;99.90;;;;;;5048469;28;20037;-66
2023/02/11 06:38:30;;;;;;;22.92;11.07;;;7.30;99.90;;;;;;5067016;28;20071;-66
2023/02/11 06:40:55;;;;;;;24.00;11.15;;;7.30;99.90;;;;;;5047975;28;20130;-66
2023/02/11 06:43:21;;;;;;;26.42;9.55;;;7.30;99.90;;;;;;5067308;28;20119;-67
2023/02/11 06:45:55;;;;;;;16.48;8.85;;;7.30;99.90;;;;;;5066441;28;20059;-66
2023/02/11 06:48:22;;;;;;;23.23;10.25;;;7.30;99.90;;;;;;5066687;28;20044;-66
2023/02/11 06:50:48;;;;;;;25.08;11.77;;;7.30;99.90;;;;;;5049624;28;20044;-66
2023/02/11 06:53:14;;;;;;;17.95;8.45;;;7.30;99.90;;;;;;5066233;28;20563;-66
2023/02/11 06:55:41;;;;;;;21.98;9.73;;;7.30;99.90;;;;;;5067417;28;20036;-66
2023/02/11 06:58:07;;;;;;;33.95;12.40;;;7.30;99.90;;;;;;5030615;28;20122;-66
2023/02/11 07:00:32;;;;;;;24.75;12.25;;;7.30;99.90;;;;;;5048583;28;20115;-66
2023/02/11 07:02:58;;;;;;;30.25;11.15;;;7.30;99.90;;;;;;5065060;28;20044;-66
2023/02/11 07:05:24;;;;;;;28.55;11.02;;;7.30;99.90;;;;;;5049311;28;20040;-67
2023/02/11 07:07:50;;;;;;;16.75;5.93;;;7.30;99.90;;;;;;5066302;28;20517;-66
2023/02/11 07:10:16;;;;;;;26.08;9.80;;;7.30;99.90;;;;;;5066654;28;20048;-66
2023/02/11 07:12:41;;;;;;;28.63;11.02;;;7.40;99.90;;;;;;5049239;28;20389;-66
2023/02/11 07:15:07;;;;;;;12.45;6.15;;;7.40;99.90;;;;;;5031449;28;20052;-66
2023/02/11 07:17:34;;;;;;;16.85;6.78;;;7.40;99.90;;;;;;5066933;28;20041;-66
2023/02/11 07:20:00;;;;;;;22.10;8.95;;;7.40;99.90;;;;;;5030879;28;20045;-66
2023/02/11 07:22:26;;;;;;;19.65;8.05;;;7.50;99.90;;;;;;5067197;28;20126;-66
2023/02/11 07:24:52;;;;;;;22.75;8.90;;;7.50;99.90;;;;;;5048296;28;20580;-66
2023/02/11 07:27:18;;;;;;;18.52;8.15;;;7.50;99.90;;;;;;5067068;28;20344;-66
2023/02/11 07:29:45;;;;;;;19.13;8.13;;;7.50;99.90;;;;;;5048402;28;20107;-66
2023/02/11 07:32:12;;;;;;;17.75;7.45;;;7.50;99.90;;;;;;5066151;28;20528;-66
2023/02/11 07:34:38;;;;;;;14.95;6.68;;;7.50;99.90;;;;;;5049006;28;20106;-66
2023/02/11 07:37:04;;;;;;;28.50;10.45;;;7.60;99.90;;;;;;5048702;28;20052;-66
2023/02/11 07:39:30;;;;;;;19.27;8.10;;;7.60;99.90;;;;;;5052841;28;20587;-66
2023/02/11 07:41:56;;;;;;;26.25;10.38;;;7.60;99.90;;;;;;5051311;28;20083;-66
2023/02/11 07:44:22;;;;;;;25.70;8.93;;;7.60;99.90;;;;;;5052615;28;20559;-66
2023/02/11 07:46:48;;;;;;;13.85;6.95;;;7.60;99.90;;;;;;5069970;28;20044;-66
2023/02/11 07:49:15;;;;;;;19.73;10.65;;;7.70;99.90;;;;;;5069365;28;20469;-66
2023/02/11 07:51:40;;;;;;;21.25;6.82;;;7.70;99.90;;;;;;5051776;28;20071;-66
2023/02/11 07:54:06;;;;;;;35.38;13.75;;;7.70;99.90;;;;;;5050294;28;20110;-66
2023/02/11 07:56:32;;;;;;;22.83;10.30;;;7.70;99.90;;;;;;5069483;28;20084;-66
2023/02/11 07:59:00;;;;;;;18.25;7.97;;;7.80;99.90;;;;;;5050091;28;20033;-67
2023/02/11 08:01:27;;;;;;;23.70;10.93;;;7.80;99.90;;;;;;5052044;28;20048;-66
2023/02/11 08:03:58;;;;;;;30.58;11.82;;;7.80;99.90;;;;;;5068773;28;20048;-66
2023/02/11 08:06:27;;;;;;;28.92;12.23;;;7.80;99.90;;;;;;5068620;28;20068;-66
2023/02/11 08:08:53;;;;;;;32.10;12.82;;;7.90;99.90;;;;;;5035919;28;20054;-66
2023/02/11 08:11:24;;;;;;;23.83;10.82;;;7.80;99.90;;;;;;5050764;28;20051;-66
2023/02/11 08:13:51;;;;;;;12.23;6.18;;;7.90;99.90;;;;;;5069826;28;20080;-66
2023/02/11 08:16:28;;;;;;;26.73;11.43;;;7.90;99.90;;;;;;5049968;28;20036;-66
2023/02/11 08:18:59;;;;;;;11.07;5.80;;;7.90;99.90;;;;;;5069983;28;20106;-66
2023/02/11 08:21:26;;;;;;;16.80;5.38;;;8.00;99.90;;;;;;5068264;28;20041;-66
2023/02/11 08:23:52;;;;;;;25.33;11.25;;;8.00;99.90;;;;;;5049825;28;20498;-66
2023/02/11 08:26:20;;;;;;;32.63;12.38;;;8.00;99.90;;;;;;5069886;28;20080;-66
2023/02/11 08:28:48;;;;;;;22.30;8.70;;;8.00;99.90;;;;;;5049790;28;20442;-66
2023/02/11 08:31:15;;;;;;;23.08;10.32;;;8.00;99.90;;;;;;5071025;28;20124;-66
2023/02/11 08:33:41;;;;;;;34.65;12.82;;;8.00;99.90;;;;;;5067871;28;20035;-66
2023/02/11 08:36:09;;;;;;;23.13;9.70;;;8.00;99.90;;;;;;5069308;28;20436;-66
2023/02/11 08:38:34;;;;;;;31.38;11.93;;;8.00;99.90;;;;;;5051220;28;20048;-65
2023/02/11 08:41:00;;;;;;;27.50;10.77;;;8.10;99.90;;;;;;5069667;28;20474;-66
2023/02/11 08:43:26;;;;;;;20.90;9.68;;;8.10;99.90;;;;;;5051109;28;20041;-66
2023/02/11 08:45:52;;;;;;;29.15;10.00;;;8.10;99.90;;;;;;5049095;28;20048;-66
2023/02/11 08:48:18;;;;;;;29.48;9.00;;;8.10;99.90;;;;;;5068345;28;20048;-66
2023/02/11 08:50:44;;;;;;;25.23;9.85;;;8.10;99.90;;;;;;5047857;28;20040;-66
2023/02/11 08:53:10;;;;;;;29.88;8.55;;;8.10;99.90;;;;;;5050171;28;20052;-66
2023/02/11 08:55:36;;;;;;;19.50;7.55;;;8.20;99.90;;;;;;5030405;28;20057;-66
2023/02/11 08:58:02;;;;;;;34.10;9.63;;;8.20;99.90;;;;;;5068218;28;20525;-66
2023/02/11 09:00:29;;;;;;;17.67;4.82;;;8.20;99.90;;;;;;5066265;28;20549;-66
2023/02/11 09:02:55;;;;;;;29.42;8.60;;;8.20;99.90;;;;;;5066304;28;20060;-66
2023/02/11 09:05:21;;;;;;;31.40;10.15;;;8.20;99.90;;;;;;5050852;28;20040;-66
2023/02/11 09:07:47;;;;;;;23.38;7.82;;;8.20;99.90;;;;;;5032715;28;20052;-66
2023/02/11 09:10:13;;;;;;;32.95;9.45;;;8.30;99.90;;;;;;5069700;28;20461;-66
2023/02/11 09:12:39;;;;;;;28.00;9.45;;;8.40;99.90;;;;;;5032961;28;20132;-67
2023/02/11 09:15:05;;;;;;;29.05;8.73;;;8.40;99.90;;;;;;5051388;28;20074;-66
2023/02/11 09:17:31;;;;;;;22.20;9.18;;;8.50;99.90;;;;;;5033824;28;20044;-66
2023/02/11 09:19:57;;;;;;;24.38;8.02;;;8.50;99.90;;;;;;5067934;28;20393;-66
2023/02/11 09:22:23;;;;;;;29.33;8.52;;;8.50;99.90;;;;;;5051396;28;20048;-66
2023/02/11 09:24:49;;;;;;;28.33;8.45;;;8.60;99.90;;;;;;5066877;28;20055;-66
2023/02/11 09:27:15;;;;;;;26.48;7.07;;;8.60;99.90;;;;;;5050614;28;20051;-66
2023/02/11 09:29:40;;;;;;;30.25;8.90;;;8.60;99.90;;;;;;5066840;28;20048;-66
2023/02/11 09:32:06;;;;;;;21.13;6.88;;;8.70;99.90;;;;;;5068871;28;20037;-66
2023/02/11 09:34:32;;;;;;;28.08;7.47;;;8.70;99.90;;;;;;5048619;28;20124;-65
2023/02/11 09:36:57;;;;;;;27.85;7.18;;;8.70;99.90;;;;;;5067467;28;20041;-66
2023/02/11 09:39:25;;;;;;;22.52;8.02;;;8.70;99.90;;;;;;5050301;28;20490;-66
2023/02/11 09:42:08;;;;;;;29.65;8.57;;;8.80;99.90;;;;;;5048674;28;20499;-66
2023/02/11 09:44:36;;;;;;;24.92;8.50;;;8.80;99.90;;;;;;5050203;28;20440;-66
2023/02/11 09:47:06;;;;;;;23.40;7.13;;;8.80;99.90;;;;;;5065533;28;20041;-66
2023/02/11 09:49:46;;;;;;;24.70;7.22;;;8.80;99.90;;;;;;5050232;28;20084;-66
2023/02/11 09:52:26;;;;;;;18.42;5.97;;;8.80;99.90;;;;;;5068036;28;20041;-66
2023/02/11 09:55:01;;;;;;;26.02;6.93;;;8.80;99.90;;;;;;5066112;28;20095;-66
2023/02/11 09:57:35;;;;;;;25.10;7.15;;;8.90;99.90;;;;;;5063785;28;20383;-65
2023/02/11 10:00:19;;;;;;;26.80;6.55;;;8.90;99.90;;;;;;5046959;28;20098;-66
2023/02/11 10:03:00;;;;;;;28.02;7.38;;;8.90;99.90;;;;;;5049217;28;20056;-65
2023/02/11 10:06:04;;;;;;;16.17;4.65;;;8.90;99.90;;;;;;5050440;28;20067;-66
2023/02/11 10:08:39;;;;;;;17.95;4.68;;;9.00;99.90;;;;;;5065002;28;20404;-66
2023/02/11 10:11:16;;;;;;;16.52;5.13;;;9.00;99.90;;;;;;5049968;28;20043;-66
2023/02/11 10:14:20;;;;;;;26.42;6.78;;;9.00;99.90;;;;;;5067867;28;20379;-65
2023/02/11 10:17:07;;;;;;;23.35;6.25;;;9.00;99.90;;;;;;5055626;28;20044;-66
2023/02/11 10:19:49;;;;;;;23.90;6.85;;;9.10;99.90;;;;;;5068375;28;20055;-66
2023/02/11 10:22:27;;;;;;;26.00;6.40;;;9.10;99.90;;;;;;5067649;28;20048;-65
2023/02/11 10:24:57;;;;;;;17.73;5.00;;;9.10;99.90;;;;;;5035146;28;20119;-65
2023/02/11 10:27:34;;;;;;;35.15;7.45;;;9.10;99.90;;;;;;5067825;28;20040;-65
2023/02/11 10:30:17;;;;;;;22.77;6.22;;;9.20;99.90;;;;;;5048142;28;20448;-66
2023/02/11 10:32:59;;;;;;;26.70;5.32;;;9.20;99.90;;;;;;5067629;28;20123;-66
2023/02/11 10:35:26;;;;;;;32.83;6.38;;;9.20;99.90;;;;;;5067661;28;20048;-65
2023/02/11 10:37:52;;;;;;;29.50;5.35;;;9.20;99.90;;;;;;5065448;28;20121;-66
2023/02/11 10:40:24;;;;;;;11.75;2.33;;;9.30;99.90;;;;;;5067880;28;20048;-66
2023/02/11 10:42:58;;;;;;;36.95;7.20;;;9.40;99.90;;;;;;5065668;28;20032;-65
2023/02/11 10:45:35;;;;;;;28.42;6.15;;;9.40;99.90;;;;;;5068155;28;20045;-66
2023/02/11 10:48:07;;;;;;;12.20;3.08;;;9.50;99.90;;;;;;5066606;28;20049;-65
2023/02/11 10:50:34;;;;;;;29.58;6.22;;;9.50;99.90;;;;;;5066491;28;20036;-65
2023/02/11 10:53:19;;;;;;;26.90;4.95;;;9.50;99.90;;;;;;5043661;28;20514;-66
2023/02/11 10:55:58;;;;;;;19.33;4.43;;;9.60;99.90;;;;;;5058079;28;20056;-65
2023/02/11 10:58:44;;;;;;;24.70;5.95;;;9.70;99.90;;;;;;5063608;28;20037;-66
2023/02/11 11:01:11;;;;;;;22.60;4.75;;;9.60;99.90;;;;;;5046769;28;20346;-66
2023/02/11 11:03:47;;;;;;;26.92;5.82;;;9.60;99.90;;;;;;5066509;28;20067;-66
2023/02/11 11:06:14;;;;;;;28.55;5.90;;;9.60;99.90;;;;;;5049212;28;20052;-65
2023/02/11 11:08:49;;;;;;;32.17;5.95;;;9.70;99.90;;;;;;5047722;28;20550;-65
2023/02/11 11:11:21;;;;;;;30.00;5.95;;;9.70;99.90;;;;;;5049081;28;20086;-65
2023/02/11 11:13:53;;;;;;;29.73;5.82;;;9.60;99.90;;;;;;5070700;28;20040;-65
2023/02/11 11:16:32;;;;;;;18.27;4.45;;;9.60;99.90;;;;;;5036047;28;20102;-65
2023/02/11 11:19:07;;;;;;;26.10;5.30;;;9.60;99.90;;;;;;5036382;28;20820;-65
2023/02/11 11:21:50;;;;;;;22.95;4.45;;;9.60;99.90;;;;;;5056834;28;20045;-65
2023/02/11 11:24:33;;;;;;;31.25;5.68;;;9.60;99.90;;;;;;5070676;28;20048;-65
2023/02/11 11:27:03;;;;;;;24.02;5.30;;;9.60;99.90;;;;;;5069016;28;20074;-65
2023/02/11 11:29:44;;;;;;;33.78;5.90;;;9.60;99.90;;;;;;5069743;28;20040;-65
2023/02/11 11:32:14;;;;;;;33.05;5.55;;;9.60;99.90;;;;;;5035915;28;20390;-65
2023/02/11 11:34:42;;;;;;;33.83;5.20;;;9.50;99.90;;;;;;5069219;28;20119;-65
2023/02/11 11:37:18;;;;;;;35.95;6.00;;;9.50;99.90;;;;;;5070794;28;20054;-66
2023/02/11 11:39:57;;;;;;;26.45;4.40;;;9.50;99.90;;;;;;5067311;28;20041;-65
2023/02/11 11:42:29;;;;;;;32.67;5.47;;;9.50;99.90;;;;;;5067201;28;20406;-66
2023/02/11 11:45:01;;;;;;;31.67;4.70;;;9.50;99.90;;;;;;5067654;28;20055;-65
2023/02/11 11:47:33;;;;;;;29.05;4.85;;;9.50;99.90;;;;;;5069063;28;20074;-65
2023/02/11 11:50:20;;;;;;;35.33;5.15;;;9.50;99.90;;;;;;5070126;28;20394;-65
2023/02/11 11:53:10;;;;;;;30.13;5.15;;;9.50;99.90;;;;;;5068531;28;20135;-65
2023/02/11 11:55:46;;;;;;;30.73;4.38;;;9.60;99.90;;;;;;5066883;28;20532;-65
2023/02/11 11:58:20;;;;;;;27.65;4.70;;;9.60;99.90;;;;;;5068531;28;20072;-65
2023/02/11 12:01:08;;;;;;;27.40;3.90;;;9.60;99.90;;;;;;5050753;28;20048;-65
2023/02/11 12:03:47;;;;;;;33.53;3.83;;;9.60;99.90;;;;;;5069192;28;20094;-65
2023/02/11 12:06:40;;;;;;;22.77;4.32;;;9.60;99.90;;;;;;5069982;28;20048;-65
2023/02/11 12:09:27;;;;;;;25.52;4.82;;;9.60;99.90;;;;;;5060256;28;20124;-66
2023/02/11 12:12:42;;;;;;;36.25;5.03;;;9.60;99.90;;;;;;5061972;28;20075;-65
2023/02/11 12:15:27;;;;;;;26.83;4.63;;;9.60;99.90;;;;;;4978711;28;20056;-65
2023/02/11 12:18:01;;;;;;;28.60;4.57;;;9.60;99.90;;;;;;5067964;28;20044;-65
2023/02/11 12:20:31;;;;;;;25.13;4.32;;;9.60;99.90;;;;;;5051920;28;20067;-65
2023/02/11 12:23:19;;;;;;;29.27;4.65;;;9.60;99.90;;;;;;5069130;28;20048;-65
2023/02/11 12:26:10;;;;;;;23.60;3.72;;;9.50;99.90;;;;;;5065292;28;20032;-65
2023/02/11 12:28:35;;;;;;;;;;;9.50;99.90;;;;;;5060054;28;20690;-66
2023/02/11 12:31:06;;;;;;;27.55;3.80;;;9.50;99.90;;;;;;5068000;28;19931;-65
2023/02/11 12:33:56;;;;;;;38.75;5.95;;;9.60;99.90;;;;;;5070193;28;20047;-65
2023/02/11 12:36:31;;;;;;;23.25;4.00;;;9.60;99.90;;;;;;5035262;28;20304;-65
2023/02/11 12:39:14;;;;;;;22.23;5.45;;;9.50;99.90;;;;;;5068243;28;20056;-65
2023/02/11 12:45:02;;;;;;;20.45;4.25;;;9.50;99.90;;;;;;5051286;28;20052;-65
2023/02/11 12:47:53;;;;;;;33.85;6.05;;;9.50;99.90;;;;;;5068137;28;20123;-65
2023/02/11 12:51:01;;;;;;;34.95;5.40;;;9.50;99.90;;;;;;5069291;28;20129;-65
2023/02/11 12:53:48;;;;;;;34.30;5.03;;;9.50;99.90;;;;;;5050228;28;20052;-65
2023/02/11 12:56:23;;;;;;;23.65;5.03;;;9.50;99.90;;;;;;5049017;28;20466;-65
2023/02/11 12:58:54;;;;;;;31.38;5.22;;;9.40;99.90;;;;;;5069870;28;20048;-65
2023/02/11 13:01:26;;;;;;;27.20;3.95;;;9.40;99.90;;;;;;5048624;28;20171;-65
2023/02/11 13:04:07;;;;;;;24.85;4.47;;;9.40;99.90;;;;;;5068971;28;20037;-65
2023/02/11 13:06:42;;;;;;;34.08;4.63;;;9.40;99.90;;;;;;5051273;28;20514;-65
2023/02/11 13:09:26;;;;;;;16.15;2.92;;;9.50;99.90;;;;;;5036395;28;20458;-66
2023/02/11 13:11:57;;;;;;;30.92;5.47;;;9.50;99.90;;;;;;5043033;28;20052;-65
2023/02/11 13:14:37;;;;;;;30.48;4.65;;;9.50;99.90;;;;;;5049590;28;20040;-65